createdAt,value
2019-05-14T00:02:06.547Z,1035.41
2019-05-14T00:07:06.833Z,1035.44
2019-05-14T00:12:06.449Z,1035.45
2019-05-14T00:16:07.055Z,1035.47
2019-05-14T00:21:06.352Z,1035.43
2019-05-14T00:26:06.366Z,1035.51
2019-05-14T00:31:06.190Z,1035.44
2019-05-14T00:36:06.280Z,1035.38
2019-05-14T00:41:06.858Z,1035.37
2019-05-14T00:45:08.204Z,1035.37
2019-05-14T00:46:06.749Z,1035.37
2019-05-14T00:50:07.498Z,1035.26
2019-05-14T00:55:06.658Z,1035.25
2019-05-14T01:00:08.772Z,1035.26
2019-05-14T01:05:09.541Z,1035.27
2019-05-14T01:10:07.594Z,1035.24
2019-05-14T01:15:14.154Z,1035.24
2019-05-14T01:20:06.636Z,1035.23
2019-05-14T01:24:07.287Z,1035.26
2019-05-14T01:29:07.549Z,1035.21
2019-05-14T01:34:07.393Z,1035.25
2019-05-14T01:39:06.959Z,1035.3
2019-05-14T01:44:07.184Z,1035.28
2019-05-14T01:49:07.222Z,1035.33
2019-05-14T01:54:07.458Z,1035.5
2019-05-14T01:58:06.138Z,1035.44
2019-05-14T02:03:07.474Z,1035.38
2019-05-14T02:08:06.721Z,1035.35
2019-05-14T02:13:07.278Z,1035.29
2019-05-14T02:18:07.323Z,1035.32
2019-05-14T02:23:06.599Z,1035.32
2019-05-14T02:28:06.750Z,1035.24
2019-05-14T02:32:10.082Z,1035.23
2019-05-14T02:37:08.947Z,1035.26
2019-05-14T02:42:09.318Z,1035.28
2019-05-14T02:47:09.591Z,1035.26
2019-05-14T02:52:09.566Z,1035.25
2019-05-14T02:57:09.801Z,1035.16
2019-05-14T03:02:10.887Z,1035.14
2019-05-14T03:06:09.399Z,1035.11
2019-05-14T03:11:09.179Z,1035.06
2019-05-14T03:16:22.042Z,1035.13
2019-05-14T03:21:09.123Z,1035.11
2019-05-14T03:26:09.564Z,1035.06
2019-05-14T03:31:06.245Z,1035.04
2019-05-14T03:36:10.691Z,1035.06
2019-05-14T03:40:09.793Z,1035.06
2019-05-14T03:45:09.043Z,1035.07
2019-05-14T03:50:09.834Z,1035.08
2019-05-14T03:55:10.124Z,1035.03
2019-05-14T04:00:11.089Z,1035.08
2019-05-14T04:05:09.185Z,1035.14
2019-05-14T04:10:10.603Z,1035.1
2019-05-14T04:15:09.716Z,1035.13
2019-05-14T04:20:10.245Z,1035.09
2019-05-14T04:24:10.030Z,1035.09
2019-05-14T04:29:10.352Z,1035.05
2019-05-14T04:34:11.312Z,1035.12
2019-05-14T04:39:10.377Z,1035.08
2019-05-14T04:44:10.426Z,1035.07
2019-05-14T04:49:10.303Z,1035.04
2019-05-14T04:54:10.330Z,1035.08
2019-05-14T04:59:11.196Z,1035.06
2019-05-14T05:04:09.809Z,1035.07
2019-05-14T05:08:11.676Z,1035.14
2019-05-14T05:13:08.879Z,1035.09
2019-05-14T05:18:09.292Z,1035.1
2019-05-14T05:23:08.468Z,1035.03
2019-05-14T05:28:09.566Z,1035.06
2019-05-14T05:32:08.595Z,1035.12
2019-05-14T05:33:09.767Z,1035.12
2019-05-14T05:37:08.560Z,1035.15
2019-05-14T05:42:06.230Z,1035.14
2019-05-14T05:47:09.838Z,1035.04
2019-05-14T05:52:09.297Z,1035.11
2019-05-14T05:57:09.488Z,1035.09
2019-05-14T06:02:09.129Z,1035.17
2019-05-14T06:06:13.954Z,1035.03
2019-05-14T06:07:08.661Z,1035.03
2019-05-14T06:11:08.851Z,1035
2019-05-14T06:16:06.462Z,1035
2019-05-14T06:21:06.105Z,1035.02
2019-05-14T06:26:11.252Z,1035
2019-05-14T06:31:09.817Z,1034.88
2019-05-14T06:36:08.585Z,1034.91
2019-05-14T06:41:08.349Z,1034.79
2019-05-14T06:45:09.499Z,1034.91
2019-05-14T06:46:08.688Z,1034.91
2019-05-14T06:50:08.998Z,1034.89
2019-05-14T06:55:09.401Z,1034.87
2019-05-14T07:00:08.763Z,1035
2019-05-14T07:05:08.723Z,1034.87
2019-05-14T07:10:08.734Z,1034.85
2019-05-14T07:15:09.775Z,1034.83
2019-05-14T07:20:09.183Z,1034.78
2019-05-14T07:24:08.564Z,1034.79
2019-05-14T07:29:11.197Z,1034.79
2019-05-14T07:34:08.667Z,1034.79
2019-05-14T07:39:08.979Z,1034.82
2019-05-14T07:44:06.529Z,1034.9
2019-05-14T07:49:09.094Z,1034.86
2019-05-14T07:54:08.126Z,1034.78
2019-05-14T07:59:08.341Z,1034.77
2019-05-14T08:03:07.731Z,1034.82
2019-05-14T08:08:07.999Z,1034.81
2019-05-14T08:13:08.425Z,1034.82
2019-05-14T08:18:08.062Z,1034.81
2019-05-14T08:23:08.739Z,1034.75
2019-05-14T08:28:08.077Z,1034.62
2019-05-14T08:33:08.761Z,1034.63
2019-05-14T08:37:08.968Z,1034.48
2019-05-14T08:42:09.268Z,1034.37
2019-05-14T08:47:10.209Z,1034.32
2019-05-14T08:52:09.593Z,1034.47
2019-05-14T08:57:10.178Z,1034.38
2019-05-14T09:02:09.585Z,1034.17
2019-05-14T09:06:09.449Z,1034.17
2019-05-14T09:11:10.246Z,1034.12
2019-05-14T09:16:09.859Z,1034.11
2019-05-14T09:21:09.421Z,1034
2019-05-14T09:26:09.920Z,1033.95
2019-05-14T09:31:09.205Z,1034.03
2019-05-14T09:36:22.896Z,1033.85
2019-05-14T09:40:09.063Z,1033.84
2019-05-14T09:45:11.858Z,1033.76
2019-05-14T09:50:22.152Z,1033.73
2019-05-14T09:55:09.119Z,1033.64
2019-05-14T10:00:09.794Z,1033.54
2019-05-14T10:05:09.825Z,1033.46
2019-05-14T10:09:09.014Z,1033.63
2019-05-14T10:10:07.310Z,1033.63
2019-05-14T10:14:08.419Z,1033.64
2019-05-14T10:19:06.613Z,1033.53
2019-05-14T10:24:09.601Z,1033.45
2019-05-14T10:29:09.398Z,1033.34
2019-05-14T10:34:08.795Z,1033.35
2019-05-14T10:39:09.813Z,1033.49
2019-05-14T10:43:09.057Z,1033.42
2019-05-14T10:48:06.403Z,1033.36
2019-05-14T10:53:08.948Z,1033.26
2019-05-14T10:58:08.644Z,1033.27
2019-05-14T11:03:07.026Z,1033.3
2019-05-14T11:08:12.273Z,1033.12
2019-05-14T11:12:08.942Z,1033
2019-05-14T11:13:09.295Z,1033
2019-05-14T11:17:11.300Z,1033.02
2019-05-14T11:22:08.246Z,1033.02
2019-05-14T11:27:06.516Z,1032.95
2019-05-14T11:32:09.240Z,1033.04
2019-05-14T11:37:08.509Z,1032.96
2019-05-14T11:42:08.463Z,1032.93
2019-05-14T11:46:09.487Z,1032.88
2019-05-14T11:51:09.655Z,1032.99
2019-05-14T11:56:09.419Z,1032.88
2019-05-14T12:01:08.997Z,1032.85
2019-05-14T12:06:09.081Z,1032.73
2019-05-14T12:11:08.608Z,1032.67
2019-05-14T12:16:08.514Z,1032.5
2019-05-14T12:20:06.783Z,1032.51
2019-05-14T12:25:08.650Z,1032.45
2019-05-14T12:30:10.528Z,1032.34
2019-05-14T12:35:09.354Z,1032.25
2019-05-14T12:40:09.594Z,1032.39
2019-05-14T12:44:09.249Z,1032.29
2019-05-14T12:49:06.541Z,1032.27
2019-05-14T12:54:09.175Z,1032.19
2019-05-14T12:59:06.620Z,1032.12
2019-05-14T13:04:08.378Z,1032.12
2019-05-14T13:09:09.175Z,1031.96
2019-05-14T13:14:06.558Z,1031.76
2019-05-14T13:19:08.664Z,1031.72
2019-05-14T13:23:09.773Z,1031.68
2019-05-14T13:28:08.772Z,1031.59
2019-05-14T13:33:08.599Z,1031.58
2019-05-14T13:38:06.027Z,1031.61
2019-05-14T13:43:09.641Z,1031.53
2019-05-14T13:48:08.459Z,1031.56
2019-05-14T13:52:09.774Z,1031.28
2019-05-14T13:57:12.143Z,1031.36
2019-05-14T14:02:09.249Z,1031.38
2019-05-14T14:07:08.782Z,1031.38
2019-05-14T14:12:08.193Z,1031.4
2019-05-14T14:16:06.948Z,1031.37
2019-05-14T14:22:10.235Z,1031.25
2019-05-14T14:26:09.133Z,1031.27
2019-05-14T14:31:08.078Z,1031.19
2019-05-14T14:36:06.110Z,1031.26
2019-05-14T14:41:09.713Z,1031.15
2019-05-14T14:46:13.662Z,1031
2019-05-14T14:51:08.435Z,1031.06
2019-05-14T14:56:09.264Z,1030.91
2019-05-14T15:00:09.535Z,1030.74
2019-05-14T15:05:12.668Z,1031.04
2019-05-14T15:10:08.456Z,1031.01
2019-05-14T15:15:08.413Z,1030.99
2019-05-14T15:20:09.855Z,1030.9
2019-05-14T15:25:09.035Z,1030.96
2019-05-14T15:29:09.833Z,1030.85
2019-05-14T15:34:08.891Z,1030.91
2019-05-14T15:39:09.055Z,1030.97
2019-05-14T15:44:08.978Z,1031.02
2019-05-14T15:49:08.942Z,1031.1
2019-05-14T15:54:16.152Z,1030.94
2019-05-14T15:59:08.700Z,1030.86
2019-05-14T16:03:08.541Z,1030.81
2019-05-14T16:04:11.614Z,1030.81
2019-05-14T16:08:06.630Z,1030.74
2019-05-14T16:13:08.710Z,1030.61
2019-05-14T16:18:10.002Z,1030.55
2019-05-14T16:23:10.553Z,1030.64
2019-05-14T16:28:08.528Z,1030.73
2019-05-14T16:33:06.228Z,1030.66
2019-05-14T16:37:10.914Z,1030.63
2019-05-14T16:42:06.712Z,1030.56
2019-05-14T16:47:06.611Z,1030.46
2019-05-14T16:52:08.818Z,1030.48
2019-05-14T16:57:10.654Z,1030.62
2019-05-14T17:02:06.213Z,1030.56
2019-05-14T17:06:06.245Z,1030.63
2019-05-14T17:07:06.180Z,1030.63
2019-05-14T17:11:05.973Z,1030.54
2019-05-14T17:16:08.505Z,1030.56
2019-05-14T17:21:08.915Z,1030.51
2019-05-14T17:26:08.608Z,1030.44
2019-05-14T17:31:05.987Z,1030.51
2019-05-14T17:36:06.040Z,1030.58
2019-05-14T17:40:09.718Z,1030.64
2019-05-14T17:45:08.595Z,1030.64
2019-05-14T17:50:07.009Z,1030.63
2019-05-14T17:55:12.598Z,1030.61
2019-05-14T18:00:09.375Z,1030.59
2019-05-14T18:05:09.031Z,1030.57
2019-05-14T18:09:09.503Z,1030.62
2019-05-14T18:14:12.203Z,1030.72
2019-05-14T18:19:09.106Z,1030.67
2019-05-14T18:24:06.542Z,1030.68
2019-05-14T18:29:09.143Z,1030.72
2019-05-14T18:34:06.941Z,1030.75
2019-05-14T18:38:08.106Z,1030.78
2019-05-14T18:43:08.572Z,1030.8
2019-05-14T18:48:08.495Z,1030.85
2019-05-14T18:53:12.489Z,1030.81
2019-05-14T18:58:08.529Z,1030.82
2019-05-14T19:03:08.416Z,1030.88
2019-05-14T19:08:06.672Z,1030.86
2019-05-14T19:12:08.264Z,1030.86
2019-05-14T19:13:09.173Z,1030.86
2019-05-14T19:17:09.556Z,1030.88
2019-05-14T19:22:06.504Z,1030.9
2019-05-14T19:27:09.042Z,1030.85
2019-05-14T19:32:08.645Z,1030.9
2019-05-14T19:37:08.264Z,1030.9
2019-05-14T19:42:07.932Z,1030.8
2019-05-14T19:46:08.207Z,1030.8
2019-05-14T19:51:08.189Z,1030.76
2019-05-14T19:56:06.783Z,1030.76
2019-05-14T20:01:06.118Z,1030.77
2019-05-14T20:06:08.795Z,1030.75
2019-05-14T20:11:06.648Z,1030.77
2019-05-14T20:15:09.338Z,1030.76
2019-05-14T20:16:08.462Z,1030.76
2019-05-14T20:20:08.797Z,1030.84
2019-05-14T20:25:06.202Z,1030.76
2019-05-14T20:30:08.687Z,1030.77
2019-05-14T20:35:08.704Z,1030.79
2019-05-14T20:40:06.082Z,1030.71
2019-05-14T20:45:07.727Z,1030.66
2019-05-14T20:49:09.240Z,1030.6
2019-05-14T20:50:06.114Z,1030.6
2019-05-14T20:54:08.661Z,1030.62
2019-05-14T20:59:08.688Z,1030.6
2019-05-14T21:04:08.748Z,1030.56
2019-05-14T21:09:06.337Z,1030.58
2019-05-14T21:14:08.762Z,1030.6
2019-05-14T21:19:07.963Z,1030.56
2019-05-14T21:24:08.311Z,1030.59
2019-05-14T21:29:07.902Z,1030.6
2019-05-14T21:33:08.859Z,1030.65
2019-05-14T21:38:09.412Z,1030.56
2019-05-14T21:43:11.526Z,1030.61
2019-05-14T21:48:08.932Z,1030.55
2019-05-14T21:53:08.855Z,1030.51
2019-05-14T21:58:11.793Z,1030.45
2019-05-14T22:03:05.977Z,1030.39
2019-05-14T22:07:06.461Z,1030.32
2019-05-14T22:12:06.256Z,1030.29
2019-05-14T22:17:07.970Z,1030.26
2019-05-14T22:22:07.983Z,1030.31
2019-05-14T22:27:06.277Z,1030.24
2019-05-14T22:32:08.071Z,1030.18
2019-05-14T22:36:09.386Z,1030.17
2019-05-14T22:41:08.254Z,1030.14
2019-05-14T22:46:08.303Z,1030.09
2019-05-14T22:51:08.643Z,1030.16
2019-05-14T22:56:08.273Z,1030.1
2019-05-14T23:01:14.187Z,1030.06
2019-05-14T23:06:05.918Z,1030.02
2019-05-14T23:11:05.879Z,1030.02
2019-05-14T23:15:08.465Z,1029.96
2019-05-14T23:16:08.192Z,1029.96
2019-05-14T23:20:08.866Z,1029.99
2019-05-14T23:25:08.710Z,1029.95
2019-05-14T23:30:07.605Z,1029.94
2019-05-14T23:35:06.448Z,1029.89
2019-05-14T23:40:08.363Z,1029.81
2019-05-14T23:45:08.284Z,1029.86
2019-05-14T23:49:08.720Z,1029.75
2019-05-14T23:54:09.186Z,1029.68
2019-05-14T23:59:08.697Z,1029.76
